Time;durP1;ratioP1;P1;durP2;ratioP2;P2;SDS_P1;SDS_P2;PMS_P1;PMS_P2;Temp;Humidity;BMP_temperature;BMP_pressure;BME280_temperature;BME280_humidity;BME280_pressure;Samples;Min_cycle;Max_cycle;Signal;HPM_P1;HPM_P2
2021/01/09 00:06:23;;;;;;;1.13;1.03;;;6.60;99.90;;;;;;20542893;28;20338;-69
2021/01/09 00:16:29;;;;;;;0.20;0.10;;;6.80;99.90;;;;;;20541515;28;20537;-69
2021/01/09 00:26:33;;;;;;;0.30;0.20;;;7.00;99.90;;;;;;20541560;28;20430;-68
2021/01/09 00:36:46;;;;;;;1.03;0.83;;;7.10;99.90;;;;;;20569880;28;20228;-70
2021/01/09 00:46:49;;;;;;;1.53;1.27;;;7.10;99.90;;;;;;20538885;28;20200;-69
2021/01/09 00:56:53;;;;;;;1.07;0.73;;;7.00;99.90;;;;;;20538251;28;20919;-68
2021/01/09 01:06:56;;;;;;;0.40;0.40;;;6.90;99.90;;;;;;20538378;28;20235;-68
2021/01/09 01:16:59;;;;;;;1.67;0.80;;;6.60;99.90;;;;;;20537172;28;20748;-67
2021/01/09 01:27:03;;;;;;;0.23;0.20;;;6.50;99.90;;;;;;20536204;28;20192;-68
2021/01/09 01:37:07;;;;;;;0.20;0.20;;;6.20;99.90;;;;;;20586793;28;20238;-65
2021/01/09 01:47:15;;;;;;;2.00;0.50;;;5.60;99.90;;;;;;20611106;28;20302;-67
2021/01/09 01:57:18;;;;;;;1.70;0.77;;;5.20;99.90;;;;;;20615707;28;20588;-68
2021/01/09 02:07:26;;;;;;;2.30;1.40;;;4.90;99.90;;;;;;20615714;28;20334;-68
2021/01/09 02:17:29;;;;;;;0.60;0.60;;;4.90;99.90;;;;;;20614189;28;20628;-67
2021/01/09 02:27:34;;;;;;;0.20;0.17;;;4.90;99.90;;;;;;20614146;28;20254;-67
2021/01/09 02:37:37;;;;;;;0.20;0.20;;;4.80;99.90;;;;;;20628010;28;20698;-69
2021/01/09 02:47:41;;;;;;;0.50;0.20;;;4.80;99.90;;;;;;20629188;28;20199;-66
2021/01/09 02:57:44;;;;;;;1.63;0.30;;;4.80;99.90;;;;;;20629496;28;20237;-66
2021/01/09 03:07:47;;;;;;;0.33;0.33;;;4.80;99.90;;;;;;20640104;23;20258;-78
2021/01/09 03:17:51;;;;;;;1.03;0.40;;;4.80;99.90;;;;;;20630772;28;20226;-76
2021/01/09 03:27:55;;;;;;;3.80;0.40;;;4.80;99.90;;;;;;20625867;28;20671;-79
2021/01/09 03:37:57;;;;;;;0.20;0.10;;;4.90;99.90;;;;;;20628969;28;20354;-80
2021/01/09 03:48:01;;;;;;;0.43;0.40;;;5.20;99.90;;;;;;20629197;28;20214;-78
2021/01/09 03:58:04;;;;;;;0.20;0.20;;;5.30;99.90;;;;;;20627724;28;20289;-78
2021/01/09 04:08:07;;;;;;;0.20;0.20;;;5.50;99.90;;;;;;20518210;28;20262;-76
2021/01/09 04:18:10;;;;;;;0.27;0.23;;;5.80;99.90;;;;;;20550935;28;20684;-75
2021/01/09 04:28:13;;;;;;;0.20;0.10;;;5.80;99.90;;;;;;20542930;28;20661;-78
2021/01/09 04:38:16;;;;;;;0.20;0.10;;;6.10;99.90;;;;;;20484631;28;20658;-79
2021/01/09 04:48:20;;;;;;;0.20;0.20;;;6.30;99.90;;;;;;20460657;29;20230;-78
2021/01/09 04:58:22;;;;;;;0.20;0.20;;;6.50;99.90;;;;;;20458408;28;20693;-78
2021/01/09 05:08:26;;;;;;;0.20;0.03;;;6.40;99.90;;;;;;20530909;23;20238;-65
2021/01/09 05:18:33;;;;;;;0.20;0.10;;;6.40;99.90;;;;;;20539071;28;20230;-65
2021/01/09 05:28:39;;;;;;;0.20;0.10;;;6.50;99.90;;;;;;20532154;28;20192;-65
2021/01/09 05:38:44;;;;;;;0.20;0.10;;;6.70;99.90;;;;;;20534306;28;20227;-66
2021/01/09 05:48:47;;;;;;;0.20;0.10;;;6.80;99.90;;;;;;20534541;28;20211;-66
2021/01/09 05:58:51;;;;;;;1.23;0.57;;;6.60;99.90;;;;;;20534263;28;20588;-65
2021/01/09 06:08:59;;;;;;;0.30;0.30;;;6.80;99.90;;;;;;20534091;28;20342;-64
2021/01/09 06:19:02;;;;;;;0.20;0.10;;;6.80;99.90;;;;;;20532666;28;20705;-65
2021/01/09 06:29:19;;;;;;;0.20;0.10;;;6.70;99.90;;;;;;20536219;28;20449;-66
2021/01/09 06:39:24;;;;;;;0.37;0.37;;;6.60;99.90;;;;;;20533303;28;20224;-65
2021/01/09 06:49:28;;;;;;;0.57;0.40;;;6.50;99.90;;;;;;20531468;28;20679;-66
2021/01/09 06:59:32;;;;;;;0.33;0.30;;;6.40;99.90;;;;;;20532675;28;20415;-66
2021/01/09 07:09:40;;;;;;;0.20;0.10;;;6.30;99.90;;;;;;20530278;28;20196;-66
2021/01/09 07:19:43;;;;;;;0.20;0.10;;;6.20;99.90;;;;;;20539705;28;20246;-64
2021/01/09 07:29:46;;;;;;;0.20;0.10;;;6.30;99.90;;;;;;20541351;28;20200;-64
2021/01/09 07:39:57;;;;;;;0.20;0.10;;;6.40;99.90;;;;;;20543579;28;20238;-64
2021/01/09 07:50:01;;;;;;;0.20;0.10;;;6.50;99.90;;;;;;20542156;28;20189;-66
2021/01/09 08:00:16;;;;;;;0.33;0.17;;;6.50;99.90;;;;;;20542393;28;20232;-65
2021/01/09 08:10:25;;;;;;;0.20;0.10;;;6.30;99.90;;;;;;20540047;28;20645;-64
2021/01/09 08:20:27;;;;;;;0.20;0.10;;;6.40;99.90;;;;;;20542038;28;20240;-66
2021/01/09 08:30:33;;;;;;;0.20;0.10;;;6.30;99.90;;;;;;20521435;28;20196;-66
2021/01/09 08:40:36;;;;;;;0.20;0.10;;;6.20;99.90;;;;;;20539449;28;21041;-64
2021/01/09 08:50:47;;;;;;;0.20;0.10;;;6.10;99.90;;;;;;20535736;28;20204;-66
2021/01/09 09:00:53;;;;;;;0.20;0.10;;;6.20;99.90;;;;;;20537498;28;20557;-65
2021/01/09 09:10:58;;;;;;;0.20;0.10;;;6.00;99.90;;;;;;20537940;28;20236;-64
2021/01/09 09:21:01;;;;;;;0.20;0.10;;;6.10;99.90;;;;;;20537944;28;20220;-65
2021/01/09 09:31:17;;;;;;;0.20;0.20;;;6.10;99.90;;;;;;20535437;28;20200;-66
2021/01/09 09:41:20;;;;;;;0.20;0.10;;;6.40;99.90;;;;;;20534250;28;20439;-65
2021/01/09 09:51:33;;;;;;;0.20;0.10;;;6.40;99.90;;;;;;20535117;28;20390;-66
2021/01/09 10:01:37;;;;;;;0.20;0.10;;;6.70;99.90;;;;;;20532370;28;20258;-65
2021/01/09 10:11:42;;;;;;;0.20;0.10;;;6.80;99.90;;;;;;20533796;28;20200;-66
2021/01/09 10:22:01;;;;;;;0.20;0.10;;;6.90;99.90;;;;;;20532424;28;20578;-66
2021/01/09 10:32:05;;;;;;;0.20;0.10;;;7.10;99.90;;;;;;20533284;28;20203;-67
2021/01/09 10:42:10;;;;;;;0.20;0.00;;;7.40;99.90;;;;;;20531304;28;20224;-67
2021/01/09 10:52:14;;;;;;;0.20;0.10;;;7.50;99.90;;;;;;20538159;28;20207;-66
2021/01/09 11:02:16;;;;;;;0.53;0.50;;;7.40;99.90;;;;;;20545609;28;20286;-67
2021/01/09 11:12:20;;;;;;;0.20;0.10;;;7.40;99.90;;;;;;20547366;28;20234;-68
2021/01/09 11:22:22;;;;;;;0.20;0.10;;;7.40;99.90;;;;;;20542608;28;20263;-67
2021/01/09 11:32:26;;;;;;;0.20;0.20;;;7.20;99.90;;;;;;20545185;28;20808;-67
2021/01/09 11:42:30;;;;;;;0.20;0.03;;;6.80;99.90;;;;;;20539526;28;20212;-67
2021/01/09 11:52:33;;;;;;;0.20;0.10;;;6.70;99.90;;;;;;20539435;28;20482;-67
2021/01/09 12:02:38;;;;;;;0.63;0.60;;;6.70;99.90;;;;;;20537438;28;20318;-67
2021/01/09 12:12:41;;;;;;;0.33;0.33;;;6.60;99.90;;;;;;20537810;28;20417;-66
2021/01/09 12:22:44;;;;;;;0.20;0.10;;;6.50;99.90;;;;;;20536997;28;20224;-66
2021/01/09 12:32:47;;;;;;;0.33;0.33;;;6.40;99.90;;;;;;20521670;28;20457;-67
2021/01/09 12:42:50;;;;;;;4.37;2.60;;;6.40;99.90;;;;;;20518783;28;20567;-68
2021/01/09 12:52:56;;;;;;;0.50;0.50;;;6.60;99.90;;;;;;20535112;28;20619;-68
2021/01/09 13:02:59;;;;;;;1.10;1.00;;;6.90;99.90;;;;;;20532213;28;20236;-68
2021/01/09 13:13:02;;;;;;;0.20;0.10;;;7.00;99.90;;;;;;20516094;28;20199;-70
2021/01/09 13:23:05;;;;;;;0.20;0.10;;;7.00;99.90;;;;;;20532856;28;20330;-68
2021/01/09 13:33:08;;;;;;;2.10;0.90;;;7.10;99.90;;;;;;20534752;28;20207;-68
2021/01/09 13:43:11;;;;;;;0.20;0.10;;;7.20;99.90;;;;;;20532025;28;20224;-67
2021/01/09 13:53:14;;;;;;;0.20;0.10;;;7.10;99.90;;;;;;20469425;28;20492;-69
2021/01/09 14:03:17;;;;;;;0.40;0.37;;;7.00;99.90;;;;;;20451300;29;20224;-68
2021/01/09 14:13:20;;;;;;;0.20;0.17;;;7.00;99.90;;;;;;20448750;29;20211;-67
2021/01/09 14:23:23;;;;;;;0.27;0.20;;;7.00;99.90;;;;;;20430726;28;20563;-68
2021/01/09 14:33:26;;;;;;;0.20;0.10;;;7.00;99.90;;;;;;20467765;29;20208;-66
2021/01/09 14:43:29;;;;;;;0.40;0.37;;;7.20;99.90;;;;;;20466804;29;20264;-69
2021/01/09 14:53:36;;;;;;;0.30;0.27;;;7.00;99.90;;;;;;20540490;28;20552;-68
2021/01/09 15:03:38;;;;;;;0.20;0.10;;;6.90;99.90;;;;;;20546114;28;20583;-69
2021/01/09 15:13:42;;;;;;;0.20;0.10;;;7.00;99.90;;;;;;20530158;28;20208;-67
2021/01/09 15:23:44;;;;;;;0.20;0.10;;;6.90;99.90;;;;;;20543621;28;20228;-66
2021/01/09 15:33:48;;;;;;;0.20;0.10;;;6.90;99.90;;;;;;20541701;28;20253;-68
2021/01/09 15:43:59;;;;;;;0.30;0.30;;;7.10;99.90;;;;;;20537918;28;20235;-68
2021/01/09 15:54:03;;;;;;;14.23;4.03;;;7.20;99.90;;;;;;20542267;28;20603;-68
2021/01/09 16:04:08;;;;;;;1.50;1.10;;;7.20;99.90;;;;;;20538773;28;20244;-67
2021/01/09 16:14:11;;;;;;;0.50;0.40;;;7.20;99.90;;;;;;20540053;28;20192;-68
2021/01/09 16:24:14;;;;;;;2.07;1.43;;;7.20;99.90;;;;;;20537934;28;20715;-69
2021/01/09 16:34:17;;;;;;;0.53;0.53;;;7.30;99.90;;;;;;20520432;28;20647;-69
2021/01/09 16:44:40;;;;;;;1.27;1.17;;;7.30;99.90;;;;;;20520093;28;20223;-68
2021/01/09 16:54:43;;;;;;;0.20;0.10;;;7.20;99.90;;;;;;20534249;28;20193;-67
2021/01/09 17:04:46;;;;;;;0.30;0.30;;;7.10;99.90;;;;;;20535857;28;20235;-67
2021/01/09 17:14:50;;;;;;;0.20;0.10;;;7.30;99.90;;;;;;20531784;28;20192;-67
2021/01/09 17:24:52;;;;;;;0.20;0.10;;;7.30;99.90;;;;;;20529464;28;20231;-66
2021/01/09 17:34:59;;;;;;;0.27;0.23;;;7.20;99.90;;;;;;20527270;28;20192;-69
2021/01/09 17:45:01;;;;;;;3.13;0.50;;;7.10;99.90;;;;;;20531019;28;20318;-68
2021/01/09 17:55:06;;;;;;;0.20;0.13;;;7.20;99.90;;;;;;20530018;28;20653;-68
2021/01/09 18:05:10;;;;;;;0.20;0.10;;;7.20;99.90;;;;;;20437842;28;20233;-66
2021/01/09 18:15:14;;;;;;;0.23;0.23;;;7.20;99.90;;;;;;20371738;29;20693;-69
2021/01/09 18:25:17;;;;;;;0.20;0.10;;;7.30;99.90;;;;;;20370468;29;20229;-69
2021/01/09 18:35:20;;;;;;;0.20;0.10;;;7.20;99.90;;;;;;20352789;29;20194;-68
2021/01/09 18:45:24;;;;;;;0.20;0.10;;;7.40;99.90;;;;;;20369091;29;20218;-67
2021/01/09 18:55:48;;;;;;;0.30;0.30;;;7.40;99.90;;;;;;20349239;29;20492;-67
2021/01/09 19:05:52;;;;;;;0.20;0.20;;;7.50;99.90;;;;;;20419371;29;20734;-67
2021/01/09 19:16:23;;;;;;;0.20;0.10;;;7.40;99.90;;;;;;20454210;28;20203;-68
2021/01/09 19:26:29;;;;;;;0.20;0.10;;;7.50;99.90;;;;;;20447555;29;20251;-67
2021/01/09 19:36:33;;;;;;;0.53;0.47;;;7.60;99.90;;;;;;20462120;29;20197;-68
2021/01/09 19:46:39;;;;;;;0.20;0.10;;;7.60;99.90;;;;;;20460461;29;20419;-66
2021/01/09 19:56:43;;;;;;;0.20;0.10;;;7.50;99.90;;;;;;20457768;29;20255;-68
2021/01/09 20:06:46;;;;;;;0.20;0.13;;;7.60;99.90;;;;;;20462202;29;20248;-68
2021/01/09 20:16:49;;;;;;;0.20;0.20;;;7.60;99.90;;;;;;20441279;29;20196;-67
2021/01/09 20:26:53;;;;;;;0.20;0.10;;;7.50;99.90;;;;;;20440106;28;20205;-67
2021/01/09 20:36:59;;;;;;;0.57;0.50;;;7.50;99.90;;;;;;20449860;28;20650;-67
2021/01/09 20:47:02;;;;;;;0.30;0.30;;;7.70;99.90;;;;;;20457273;28;20320;-67
2021/01/09 20:57:08;;;;;;;0.20;0.10;;;7.80;99.90;;;;;;20455428;28;20189;-69
2021/01/09 21:07:13;;;;;;;0.20;0.20;;;7.80;99.90;;;;;;20459675;29;20275;-69
2021/01/09 21:17:30;;;;;;;0.20;0.20;;;7.80;99.90;;;;;;20439414;29;20784;-65
2021/01/09 21:27:33;;;;;;;0.50;0.30;;;7.70;99.90;;;;;;20452878;29;20718;-66
2021/01/09 21:37:39;;;;;;;0.20;0.10;;;7.70;99.90;;;;;;20451913;28;20229;-67
2021/01/09 21:47:42;;;;;;;0.20;0.10;;;7.60;99.90;;;;;;20452136;29;20204;-67
2021/01/09 21:57:46;;;;;;;0.30;0.20;;;7.40;99.90;;;;;;20452400;29;20718;-66
2021/01/09 22:07:48;;;;;;;0.20;0.10;;;7.40;99.90;;;;;;20451124;29;20227;-68
2021/01/09 22:17:52;;;;;;;0.20;0.10;;;7.50;99.90;;;;;;20452008;29;20228;-69
2021/01/09 22:27:55;;;;;;;0.23;0.23;;;7.50;99.90;;;;;;20432988;29;20655;-68
2021/01/09 22:37:59;;;;;;;0.20;0.20;;;7.60;99.90;;;;;;20448858;29;20224;-67
2021/01/09 22:48:01;;;;;;;0.20;0.10;;;7.70;99.90;;;;;;20451345;28;20651;-68
2021/01/09 22:58:05;;;;;;;0.30;0.30;;;7.80;99.90;;;;;;20466331;29;20936;-68
2021/01/09 23:08:08;;;;;;;0.20;0.10;;;7.80;99.90;;;;;;20463314;29;20267;-67
2021/01/09 23:18:11;;;;;;;0.47;0.33;;;7.80;99.90;;;;;;20445832;29;20563;-67
2021/01/09 23:28:14;;;;;;;1.53;0.20;;;8.10;99.90;;;;;;20466054;29;20209;-68
2021/01/09 23:38:20;;;;;;;0.30;0.20;;;7.90;99.90;;;;;;20469237;29;20276;-66
2021/01/09 23:48:23;;;;;;;0.27;0.27;;;7.80;99.90;;;;;;20461205;29;20193;-67
2021/01/09 23:58:26;;;;;;;0.20;0.10;;;7.80;99.90;;;;;;20462491;28;20228;-68
